createdAt,value
2017-05-13T00:00:23.628Z,1000.67
2017-05-13T00:01:04.217Z,1000.65
2017-05-13T00:01:44.921Z,1000.67
2017-05-13T00:02:25.541Z,1000.67
2017-05-13T00:03:06.263Z,1000.69
2017-05-13T00:03:46.825Z,1000.67
2017-05-13T00:04:27.571Z,1000.68
2017-05-13T00:05:08.132Z,1000.67
2017-05-13T00:05:48.784Z,1000.69
2017-05-13T00:06:29.419Z,1000.72
2017-05-13T00:07:10.079Z,1000.73
2017-05-13T00:07:50.745Z,1000.77
2017-05-13T00:08:31.435Z,1000.75
2017-05-13T00:09:12.045Z,1000.79
2017-05-13T00:09:52.602Z,1000.78
2017-05-13T00:10:33.275Z,1000.81
2017-05-13T00:11:13.830Z,1000.79
2017-05-13T00:11:54.557Z,1000.8
2017-05-13T00:12:35.121Z,1000.77
2017-05-13T00:13:15.744Z,1000.73
2017-05-13T00:13:56.329Z,1000.77
2017-05-13T00:14:36.975Z,1000.76
2017-05-13T00:15:17.514Z,1000.73
2017-05-13T00:15:58.270Z,1000.75
2017-05-13T00:16:39.957Z,1000.78
2017-05-13T00:17:20.617Z,1000.73
2017-05-13T00:18:01.361Z,1000.74
2017-05-13T00:18:43.142Z,1000.74
2017-05-13T00:19:25.976Z,1000.73
2017-05-13T00:20:06.693Z,1000.72
2017-05-13T00:20:47.447Z,1000.72
2017-05-13T00:21:29.114Z,1000.72
2017-05-13T00:22:10.799Z,1000.72
2017-05-13T00:22:51.515Z,1000.7
2017-05-13T00:23:32.317Z,1000.67
2017-05-13T00:24:13.074Z,1000.67
2017-05-13T00:24:53.819Z,1000.66
2017-05-13T00:25:35.605Z,1000.61
2017-05-13T00:26:16.250Z,1000.66
2017-05-13T00:26:57.044Z,1000.57
2017-05-13T00:27:37.651Z,1000.62
2017-05-13T00:28:18.488Z,1000.6
2017-05-13T00:29:00.203Z,1000.57
2017-05-13T00:29:40.960Z,1000.55
2017-05-13T00:30:21.709Z,1000.58
2017-05-13T00:31:02.467Z,1000.58
2017-05-13T00:31:43.114Z,1000.55
2017-05-13T00:32:23.889Z,1000.49
2017-05-13T00:33:04.642Z,1000.54
2017-05-13T00:33:45.276Z,1000.52
2017-05-13T00:34:26.040Z,1000.52
2017-05-13T00:35:06.834Z,1000.49
2017-05-13T00:35:47.601Z,1000.5
2017-05-13T00:36:30.370Z,1000.45
2017-05-13T00:37:11.104Z,1000.44
2017-05-13T00:37:51.864Z,1000.42
2017-05-13T00:38:32.512Z,1000.41
2017-05-13T00:39:13.293Z,1000.39
2017-05-13T00:39:55.063Z,1000.39
2017-05-13T00:40:35.727Z,1000.34
2017-05-13T00:41:16.475Z,1000.33
2017-05-13T00:41:57.264Z,1000.27
2017-05-13T00:42:37.991Z,1000.29
2017-05-13T00:43:18.771Z,1000.26
2017-05-13T00:43:59.498Z,1000.26
2017-05-13T00:44:40.254Z,1000.29
2017-05-13T00:45:20.819Z,1000.28
2017-05-13T00:46:01.554Z,1000.26
2017-05-13T00:46:42.235Z,1000.2
2017-05-13T00:47:22.979Z,1000.26
2017-05-13T00:48:03.547Z,1000.23
2017-05-13T00:48:44.228Z,1000.21
2017-05-13T00:49:24.966Z,1000.22
2017-05-13T00:50:05.687Z,1000.22
2017-05-13T00:50:46.269Z,1000.2
2017-05-13T00:51:27.083Z,1000.2
2017-05-13T00:52:07.791Z,1000.16
2017-05-13T00:52:49.531Z,1000.15
2017-05-13T00:53:30.152Z,1000.22
2017-05-13T00:54:10.967Z,1000.14
2017-05-13T00:54:51.699Z,1000.16
2017-05-13T00:55:32.447Z,1000.18
2017-05-13T00:56:13.069Z,1000.16
2017-05-13T00:56:53.858Z,1000.17
2017-05-13T00:57:34.633Z,1000.18
2017-05-13T00:58:15.365Z,1000.19
2017-05-13T00:58:55.967Z,1000.15
2017-05-13T00:59:36.684Z,1000.15
2017-05-13T01:00:17.444Z,1000.13
2017-05-13T01:00:58.185Z,1000.1
2017-05-13T01:01:38.936Z,1000.1
2017-05-13T01:02:19.692Z,1000.14
2017-05-13T01:03:00.447Z,1000.11
2017-05-13T01:03:41.207Z,1000.12
2017-05-13T01:04:21.958Z,1000.11
2017-05-13T01:05:02.554Z,1000.11
2017-05-13T01:05:43.245Z,1000.13
2017-05-13T01:06:23.910Z,1000.16
2017-05-13T01:07:04.675Z,1000.17
2017-05-13T01:07:45.319Z,1000.17
2017-05-13T01:08:25.964Z,1000.16
2017-05-13T01:09:06.631Z,1000.13
2017-05-13T01:09:47.388Z,1000.15
2017-05-13T02:40:20.410Z,1000.78
2017-05-13T02:41:01.086Z,1000.8
2017-05-13T02:41:41.665Z,1000.78
2017-05-13T02:42:22.335Z,1000.8
2017-05-13T02:43:03.072Z,1000.77
2017-05-13T02:43:43.636Z,1000.81
2017-05-13T02:44:24.187Z,1000.83
2017-05-13T02:45:04.901Z,1000.84
2017-05-13T02:45:45.569Z,1000.83
2017-05-13T02:46:26.301Z,1000.85
2017-05-13T02:47:07.066Z,1000.81
2017-05-13T02:48:02.820Z,1000.85
2017-05-13T02:48:45.570Z,1000.82
2017-05-13T02:49:39.254Z,1000.8
2017-05-13T02:50:21.012Z,1000.81
2017-05-13T02:51:02.852Z,1000.85
2017-05-13T02:51:49.299Z,1000.84
2017-05-13T02:52:41.829Z,1000.89
2017-05-13T02:53:24.613Z,1000.92
2017-05-13T02:54:05.390Z,1000.91
2017-05-13T02:54:48.213Z,1000.91
2017-05-13T02:55:28.934Z,1000.94
2017-05-13T02:56:09.636Z,1000.93
2017-05-13T02:57:03.263Z,1000.91
2017-05-13T02:57:48.827Z,1000.91
2017-05-13T02:58:30.587Z,1000.94
2017-05-13T02:59:11.461Z,1000.93
2017-05-13T02:59:52.213Z,1000.94
2017-05-13T03:00:33.980Z,1000.92
2017-05-13T04:34:06.142Z,1001.41
2017-05-13T04:34:46.681Z,1001.43
2017-05-13T04:35:27.256Z,1001.44
2017-05-13T04:36:07.969Z,1001.45
2017-05-13T04:36:48.554Z,1001.46
2017-05-13T04:37:29.296Z,1001.46
2017-05-13T04:38:09.915Z,1001.49
2017-05-13T04:38:50.700Z,1001.47
2017-05-13T04:39:31.274Z,1001.51
2017-05-13T04:40:12.001Z,1001.5
2017-05-13T04:40:52.627Z,1001.52
2017-05-13T04:41:33.183Z,1001.54
2017-05-13T04:42:13.922Z,1001.57
2017-05-13T04:42:54.495Z,1001.59
2017-05-13T04:43:35.170Z,1001.54
2017-05-13T04:44:15.776Z,1001.61
2017-05-13T04:44:56.495Z,1001.67
2017-05-13T04:45:37.119Z,1001.65
2017-05-13T04:46:17.890Z,1001.65
2017-05-13T04:46:58.461Z,1001.67
2017-05-13T04:47:39.167Z,1001.7
2017-05-13T04:48:19.933Z,1001.69
2017-05-13T04:49:00.703Z,1001.73
2017-05-13T04:49:41.454Z,1001.7
2017-05-13T04:50:22.209Z,1001.77
2017-05-13T04:51:03.070Z,1001.75
2017-05-13T04:51:43.631Z,1001.79
2017-05-13T04:52:24.356Z,1001.81
2017-05-13T04:53:05.103Z,1001.75
2017-05-13T04:53:45.833Z,1001.78
2017-05-13T04:54:26.593Z,1001.79
2017-05-13T04:55:07.281Z,1001.77
2017-05-13T04:55:48.061Z,1001.81
2017-05-13T04:56:28.626Z,1001.77
2017-05-13T04:57:09.327Z,1001.8
2017-05-13T04:57:49.887Z,1001.76
2017-05-13T04:58:30.652Z,1001.76
2017-05-13T04:59:11.268Z,1001.81
2017-05-13T04:59:52.067Z,1001.83
2017-05-13T05:00:32.694Z,1001.82
2017-05-13T05:01:13.522Z,1001.82
2017-05-13T05:01:54.270Z,1001.84
2017-05-13T05:02:34.984Z,1001.82
2017-05-13T05:03:15.616Z,1001.83
2017-05-13T05:03:56.289Z,1001.88
2017-05-13T05:04:37.060Z,1001.87
2017-05-13T05:05:17.837Z,1001.86
2017-05-13T05:05:58.674Z,1001.86
2017-05-13T05:06:39.299Z,1001.84
2017-05-13T05:07:20.270Z,1001.88
2017-05-13T05:08:00.932Z,1001.86
2017-05-13T05:08:41.696Z,1001.9
2017-05-13T05:09:22.462Z,1001.89
2017-05-13T05:10:03.295Z,1001.92
2017-05-13T05:10:43.895Z,1001.94
2017-05-13T05:11:25.024Z,1001.92
2017-05-13T05:12:05.760Z,1001.97
2017-05-13T05:12:46.356Z,1001.99
2017-05-13T05:13:27.089Z,1002.01
2017-05-13T05:14:07.662Z,1002.04
2017-05-13T05:14:48.788Z,1002.05
2017-05-13T05:15:29.391Z,1002.05
2017-05-13T05:16:10.208Z,1002.05
2017-05-13T05:16:50.977Z,1002.09
2017-05-13T05:17:31.709Z,1002.08
2017-05-13T05:18:12.483Z,1002.11
2017-05-13T05:18:53.353Z,1002.12
2017-05-13T05:19:34.080Z,1002.12
2017-05-13T05:20:14.689Z,1002.16
2017-05-13T05:20:55.605Z,1002.17
2017-05-13T05:21:36.257Z,1002.17
2017-05-13T05:22:17.317Z,1002.19
2017-05-13T05:22:57.952Z,1002.21
2017-05-13T05:23:38.773Z,1002.21
2017-05-13T05:24:19.478Z,1002.21
2017-05-13T05:25:00.326Z,1002.22
2017-05-13T05:25:41.092Z,1002.21
2017-05-13T05:26:21.710Z,1002.23
2017-05-13T05:27:02.524Z,1002.2
2017-05-13T05:27:43.132Z,1002.21
2017-05-13T05:28:23.926Z,1002.21
2017-05-13T05:29:04.498Z,1002.22
2017-05-13T05:29:45.205Z,1002.24
2017-05-13T05:30:25.813Z,1002.22
2017-05-13T05:31:06.618Z,1002.21
2017-05-13T05:31:47.179Z,1002.23
2017-05-13T05:32:27.843Z,1002.2
2017-05-13T05:33:08.545Z,1002.22
2017-05-13T05:33:49.192Z,1002.21
2017-05-13T05:34:29.927Z,1002.19
2017-05-13T05:35:10.588Z,1002.24
2017-05-13T05:35:51.408Z,1002.23
2017-05-13T05:36:31.987Z,1002.22
2017-05-13T05:37:12.599Z,1002.25
2017-05-13T05:37:53.236Z,1002.27
2017-05-13T05:38:33.890Z,1002.26
2017-05-13T05:39:14.574Z,1002.27
2017-05-13T05:39:55.210Z,1002.25
2017-05-13T05:40:35.966Z,1002.25
2017-05-13T05:41:16.581Z,1002.29
2017-05-13T05:41:57.236Z,1002.29
2017-05-13T05:42:37.839Z,1002.29
2017-05-13T05:43:18.509Z,1002.32
2017-05-13T05:43:59.088Z,1002.34
2017-05-13T05:44:39.800Z,1002.34
2017-05-13T05:45:20.400Z,1002.34
2017-05-13T05:46:01.015Z,1002.34
2017-05-13T05:46:41.708Z,1002.36
2017-05-13T05:47:22.303Z,1002.36
2017-05-13T05:48:02.937Z,1002.41
2017-05-13T05:48:43.496Z,1002.42
2017-05-13T05:49:24.650Z,1002.47
2017-05-13T05:50:05.328Z,1002.47
2017-05-13T05:50:45.965Z,1002.46
2017-05-13T05:51:26.566Z,1002.52
2017-05-13T05:52:08.328Z,1002.51
2017-05-13T05:52:49.087Z,1002.52
2017-05-13T05:53:29.841Z,1002.55
2017-05-13T05:54:12.645Z,1002.57
2017-05-13T05:54:53.524Z,1002.59
2017-05-13T05:55:34.289Z,1002.62
2017-05-13T05:56:14.880Z,1002.64
2017-05-13T05:56:57.725Z,1002.65
2017-05-13T05:57:38.529Z,1002.63
2017-05-13T05:58:19.128Z,1002.65
2017-05-13T05:58:59.915Z,1002.66
2017-05-13T05:59:42.810Z,1002.67
2017-05-13T06:00:23.506Z,1002.66
2017-05-13T06:01:04.190Z,1002.66
2017-05-13T06:01:45.930Z,1002.67
2017-05-13T06:02:31.373Z,1002.6
2017-05-13T06:03:11.981Z,1002.64
2017-05-13T06:03:52.673Z,1002.64
2017-05-13T06:04:38.447Z,1002.67
2017-05-13T06:05:19.062Z,1002.63
2017-05-13T06:06:11.703Z,1002.62
2017-05-13T06:31:41.302Z,1002.93
2017-05-13T06:32:22.053Z,1002.93
2017-05-13T06:33:02.652Z,1002.94
2017-05-13T06:33:43.430Z,1002.97
2017-05-13T06:34:25.239Z,1002.95
2017-05-13T06:35:05.983Z,1003.01
2017-05-13T06:35:46.679Z,1003
2017-05-13T06:36:27.502Z,1003
2017-05-13T06:37:09.350Z,1003.05
2017-05-13T06:37:50.200Z,1003.05
2017-05-13T06:38:30.945Z,1003.05
2017-05-13T06:39:12.786Z,1003.08
2017-05-13T06:39:54.732Z,1003.09
2017-05-13T06:40:35.449Z,1003.07
2017-05-13T06:41:16.244Z,1003.08
2017-05-13T06:41:57.075Z,1003.09
2017-05-13T06:42:38.083Z,1003.07
2017-05-13T06:43:18.744Z,1003.06
2017-05-13T06:43:59.480Z,1003.07
2017-05-13T06:44:40.478Z,1003.04
2017-05-13T06:45:23.300Z,1003.12
2017-05-13T06:46:03.951Z,1003.13
2017-05-13T06:46:44.911Z,1003.12
2017-05-13T06:47:25.717Z,1003.11
2017-05-13T06:48:07.499Z,1003.08
2017-05-13T06:48:48.237Z,1003.09
2017-05-13T06:49:29.059Z,1003.07
2017-05-13T06:50:11.859Z,1003.12
2017-05-13T06:50:52.695Z,1003.1
2017-05-13T06:51:34.568Z,1003.1
2017-05-13T06:52:15.465Z,1003.11
2017-05-13T06:52:56.265Z,1003.15
2017-05-13T06:53:37.014Z,1003.14
2017-05-13T06:54:17.794Z,1003.12
2017-05-13T06:54:58.632Z,1003.17
2017-05-13T06:55:39.438Z,1003.16
2017-05-13T06:56:20.056Z,1003.18
2017-05-13T06:57:00.802Z,1003.2
2017-05-13T06:57:52.229Z,1003.18
2017-05-13T06:58:32.857Z,1003.26
2017-05-13T06:59:14.359Z,1003.26
2017-05-13T06:59:55.094Z,1003.23
2017-05-13T07:00:35.710Z,1003.29
2017-05-13T07:01:16.429Z,1003.32
2017-05-13T07:01:59.417Z,1003.31
2017-05-13T07:02:42.233Z,1003.3
2017-05-13T07:03:22.985Z,1003.3
2017-05-13T07:04:05.805Z,1003.29
2017-05-13T07:04:46.636Z,1003.29
2017-05-13T07:05:28.398Z,1003.26
2017-05-13T07:06:09.248Z,1003.27
2017-05-13T07:06:51.033Z,1003.25
2017-05-13T07:07:42.761Z,1003.25
2017-05-13T07:08:24.530Z,1003.26
2017-05-13T07:09:05.304Z,1003.27
2017-05-13T07:09:48.080Z,1003.31
2017-05-13T07:10:28.836Z,1003.34
2017-05-13T07:11:09.689Z,1003.31
2017-05-13T07:11:50.478Z,1003.34
2017-05-13T07:12:31.326Z,1003.34
2017-05-13T07:13:12.191Z,1003.34
2017-05-13T07:13:52.927Z,1003.33
2017-05-13T07:14:33.671Z,1003.38
2017-05-13T07:15:14.430Z,1003.4
2017-05-13T07:15:55.031Z,1003.38
2017-05-13T07:16:35.836Z,1003.39
2017-05-13T07:17:17.704Z,1003.38
2017-05-13T07:17:59.497Z,1003.41
2017-05-13T07:18:40.150Z,1003.46
2017-05-13T07:19:20.953Z,1003.46
2017-05-13T07:20:01.732Z,1003.49
2017-05-13T07:35:30.920Z,1003.6
2017-05-13T07:36:11.481Z,1003.61
2017-05-13T07:36:52.059Z,1003.63
2017-05-13T07:37:32.816Z,1003.63
2017-05-13T07:38:13.374Z,1003.68
2017-05-13T07:38:54.104Z,1003.7
2017-05-13T07:39:34.673Z,1003.69
2017-05-13T07:40:15.392Z,1003.69
2017-05-13T07:40:56.030Z,1003.72
2017-05-13T07:41:36.694Z,1003.73
2017-05-13T07:42:17.434Z,1003.75
2017-05-13T07:42:58.118Z,1003.8
2017-05-13T07:43:38.846Z,1003.82
2017-05-13T07:44:19.623Z,1003.82
2017-05-13T07:45:00.403Z,1003.86
2017-05-13T07:45:41.118Z,1003.9
2017-05-13T07:46:21.889Z,1003.93
2017-05-13T07:47:02.731Z,1003.9
2017-05-13T07:47:49.090Z,1003.91
2017-05-13T07:48:29.830Z,1003.87
2017-05-13T07:49:10.581Z,1003.82
2017-05-13T07:49:57.189Z,1003.81
2017-05-13T07:50:38.858Z,1003.84
2017-05-13T07:51:20.624Z,1003.83
2017-05-13T07:52:01.301Z,1003.83
2017-05-13T07:52:47.540Z,1003.81
2017-05-13T07:53:28.200Z,1003.84
2017-05-13T07:54:08.835Z,1003.83
2017-05-13T07:54:51.602Z,1003.85
2017-05-13T07:55:32.430Z,1003.86
2017-05-13T09:58:12.337Z,1004.69
2017-05-13T09:58:54.012Z,1004.73
2017-05-13T09:59:34.662Z,1004.7
2017-05-13T10:00:15.431Z,1004.73
2017-05-13T10:00:57.120Z,1004.74
2017-05-13T10:01:42.468Z,1004.69
2017-05-13T10:02:30.202Z,1004.7
2017-05-13T10:03:12.010Z,1004.72
2017-05-13T10:03:52.775Z,1004.74
2017-05-13T10:04:39.004Z,1004.73
2017-05-13T10:05:20.688Z,1004.76
2017-05-13T10:06:02.371Z,1004.79
2017-05-13T10:06:43.044Z,1004.76
2017-05-13T10:07:23.778Z,1004.76
2017-05-13T10:08:04.527Z,1004.75
2017-05-13T10:08:46.352Z,1004.71
2017-05-13T10:09:27.082Z,1004.67
2017-05-13T10:10:07.822Z,1004.67
2017-05-13T10:10:54.099Z,1004.62
2017-05-13T10:11:34.830Z,1004.64
2017-05-13T10:12:17.504Z,1004.67
2017-05-13T10:12:59.136Z,1004.67
2017-05-13T10:13:39.762Z,1004.67
2017-05-13T10:14:20.499Z,1004.69
2017-05-13T10:15:01.203Z,1004.65
2017-05-13T10:15:41.849Z,1004.7
2017-05-13T10:16:22.581Z,1004.7
2017-05-13T10:17:04.280Z,1004.68
2017-05-13T10:17:44.911Z,1004.65
2017-05-13T10:18:38.488Z,1004.75
2017-05-13T10:19:20.173Z,1004.78
2017-05-13T10:20:00.922Z,1004.81
2017-05-13T10:20:41.548Z,1004.89
2017-05-13T10:21:24.293Z,1004.89
2017-05-13T10:22:05.102Z,1004.84
2017-05-13T10:22:45.677Z,1004.77
2017-05-13T10:23:26.533Z,1004.68
2017-05-13T10:24:07.296Z,1004.65
2017-05-13T10:24:47.912Z,1004.69
2017-05-13T10:25:28.648Z,1004.66
2017-05-13T10:26:09.350Z,1004.72
2017-05-13T10:26:51.433Z,1004.7
2017-05-13T10:27:32.205Z,1004.72
2017-05-13T10:28:13.925Z,1004.77
2017-05-13T10:28:54.621Z,1004.82
2017-05-13T10:29:36.409Z,1004.83
2017-05-13T10:30:17.180Z,1004.9
2017-05-13T10:31:03.579Z,1004.93
2017-05-13T10:31:44.286Z,1004.98
2017-05-13T10:32:27.013Z,1004.99
2017-05-13T10:33:09.915Z,1004.93
2017-05-13T10:33:55.606Z,1004.93
2017-05-13T10:34:36.198Z,1004.83
2017-05-13T10:35:18.936Z,1004.81
2017-05-13T10:36:00.946Z,1004.83
2017-05-13T10:36:41.697Z,1004.79
2017-05-13T10:37:24.421Z,1004.82
2017-05-13T10:38:05.137Z,1004.77
2017-05-13T10:38:45.907Z,1004.77
2017-05-13T10:39:28.642Z,1004.76
2017-05-13T10:40:09.425Z,1004.7
2017-05-13T10:40:52.180Z,1004.73
2017-05-13T10:41:32.916Z,1004.77
2017-05-13T10:42:13.684Z,1004.79
2017-05-13T10:42:54.326Z,1004.8
2017-05-13T10:43:35.074Z,1004.87
2017-05-13T10:44:15.940Z,1004.86
2017-05-13T10:44:56.710Z,1004.89
2017-05-13T10:45:37.459Z,1004.87
2017-05-13T10:46:24.069Z,1004.84
2017-05-13T10:47:10.549Z,1004.84
2017-05-13T10:47:56.091Z,1004.83
2017-05-13T10:48:37.796Z,1004.81
2017-05-13T10:49:20.572Z,1004.84
2017-05-13T10:50:02.369Z,1004.81
2017-05-13T10:50:45.125Z,1004.83
2017-05-13T10:51:26.829Z,1004.81
2017-05-13T10:52:07.633Z,1004.81
2017-05-13T10:52:48.347Z,1004.83
2017-05-13T10:53:29.135Z,1004.82
2017-05-13T10:54:09.887Z,1004.76
2017-05-13T10:54:50.625Z,1004.77
2017-05-13T10:55:31.371Z,1004.75
2017-05-13T10:56:12.029Z,1004.71
2017-05-13T10:56:52.898Z,1004.76
2017-05-13T10:57:35.730Z,1004.75
2017-05-13T10:58:28.134Z,1004.71
2017-05-13T10:59:08.794Z,1004.7
2017-05-13T10:59:49.521Z,1004.72
2017-05-13T11:00:31.589Z,1004.73
2017-05-13T11:01:13.331Z,1004.76
2017-05-13T11:01:53.931Z,1004.83
2017-05-13T11:02:36.648Z,1004.79
2017-05-13T11:03:17.468Z,1004.76
2017-05-13T11:04:03.060Z,1004.86
2017-05-13T11:04:43.744Z,1004.89
2017-05-13T11:05:24.486Z,1004.82
2017-05-13T11:06:06.202Z,1004.83
2017-05-13T11:06:47.980Z,1004.79
2017-05-13T11:07:45.597Z,1004.76
2017-05-13T11:08:43.137Z,1004.83
2017-05-13T11:32:43.537Z,1004.76
2017-05-13T11:33:24.107Z,1004.71
2017-05-13T11:34:04.953Z,1004.76
2017-05-13T11:34:47.682Z,1004.78
2017-05-13T11:35:28.317Z,1004.77
2017-05-13T11:36:09.052Z,1004.83
2017-05-13T11:36:49.758Z,1004.86
2017-05-13T11:37:31.531Z,1004.78
2017-05-13T11:38:12.271Z,1004.86
2017-05-13T11:38:59.820Z,1004.92
2017-05-13T11:39:40.615Z,1004.95
2017-05-13T11:40:22.218Z,1004.94
2017-05-13T11:41:02.978Z,1004.89
2017-05-13T11:41:45.678Z,1004.84
2017-05-13T11:42:33.330Z,1004.83
2017-05-13T11:43:24.846Z,1004.82
2017-05-13T11:44:11.394Z,1004.85
2017-05-13T11:45:03.753Z,1004.86
2017-05-13T11:45:49.306Z,1004.86
2017-05-13T11:53:19.549Z,1005.14
2017-05-13T11:54:01.314Z,1005.1
2017-05-13T11:54:46.636Z,1005.12
2017-05-13T11:55:29.456Z,1004.97
2017-05-13T11:56:10.165Z,1004.95
2017-05-13T11:56:51.823Z,1004.95
2017-05-13T11:57:37.593Z,1005.02
2017-05-13T11:58:35.144Z,1005.01
2017-05-13T11:59:15.909Z,1005.03
2017-05-13T11:59:57.602Z,1004.98
2017-05-13T12:00:39.261Z,1005.03
2017-05-13T12:01:20.964Z,1005.12
2017-05-13T12:02:01.563Z,1005.17
2017-05-13T12:02:43.324Z,1005.19
2017-05-13T12:03:24.035Z,1005.1
2017-05-13T12:04:04.671Z,1005.13
2017-05-13T12:06:18.031Z,1005.18
2017-05-13T12:07:00.690Z,1005.18
2017-05-13T12:07:42.476Z,1005.1
2017-05-13T12:08:23.031Z,1005.06
2017-05-13T12:09:14.472Z,1004.97
2017-05-13T12:09:56.105Z,1004.83
2017-05-13T12:10:36.864Z,1004.84
2017-05-13T12:11:17.484Z,1004.9
2017-05-13T12:11:58.273Z,1004.89
2017-05-13T12:12:44.663Z,1004.86
2017-05-13T12:13:27.372Z,1004.89
2017-05-13T12:22:27.693Z,1004.8
2017-05-13T12:23:08.366Z,1004.81
2017-05-13T12:23:48.942Z,1004.77
2017-05-13T12:24:34.296Z,1004.77
2017-05-13T12:25:14.890Z,1004.75
2017-05-13T12:28:21.923Z,1004.93
2017-05-13T12:29:02.623Z,1004.99
2017-05-13T12:29:54.090Z,1004.97
2017-05-13T12:30:34.836Z,1004.98
2017-05-13T12:31:15.497Z,1005.02
2017-05-13T12:31:57.308Z,1005.07
2017-05-13T12:32:38.045Z,1005.05
2017-05-13T12:33:23.618Z,1005.02
2017-05-13T12:34:06.508Z,1005.02
2017-05-13T12:34:47.278Z,1004.94
2017-05-13T12:35:28.032Z,1004.95
2017-05-13T12:36:08.764Z,1004.95
2017-05-13T12:36:49.423Z,1005.02
2017-05-13T12:37:30.214Z,1004.94
2017-05-13T12:38:11.954Z,1004.96
2017-05-13T12:38:54.709Z,1004.99
2017-05-13T12:39:36.464Z,1004.99
2017-05-13T12:40:17.099Z,1005.08
2017-05-13T12:40:57.862Z,1005.09
2017-05-13T12:41:38.609Z,1005.07
2017-05-13T12:42:19.433Z,1005.14
2017-05-13T12:43:00.129Z,1005.08
2017-05-13T12:43:41.924Z,1005.09
2017-05-13T12:44:22.667Z,1005.09
2017-05-13T12:45:08.151Z,1005.06
2017-05-13T12:45:48.952Z,1005.06
2017-05-13T12:46:29.848Z,1004.96
2017-05-13T12:47:10.531Z,1004.98
2017-05-13T12:48:01.988Z,1004.94
2017-05-13T12:48:42.755Z,1004.89
2017-05-13T12:49:23.402Z,1004.88
2017-05-13T12:50:10.019Z,1004.87
2017-05-13T12:50:51.833Z,1004.84
2017-05-13T12:51:32.575Z,1004.88
2017-05-13T12:52:14.225Z,1004.9
2017-05-13T12:52:55.099Z,1004.87
2017-05-13T12:53:35.834Z,1004.87
2017-05-13T12:54:18.533Z,1004.85
2017-05-13T12:54:59.376Z,1004.85
2017-05-13T12:55:46.183Z,1004.89
2017-05-13T12:56:27.983Z,1004.84
2017-05-13T12:57:10.842Z,1004.87
2017-05-13T12:57:52.535Z,1004.9
2017-05-13T12:58:44.150Z,1004.85
2017-05-13T12:59:39.665Z,1004.89
2017-05-13T13:00:22.383Z,1004.87
2017-05-13T13:20:03.988Z,1004.93
2017-05-13T13:20:45.700Z,1004.9
2017-05-13T13:21:27.385Z,1004.92
2017-05-13T13:22:08.064Z,1004.96
2017-05-13T13:22:53.316Z,1004.96
2017-05-13T13:23:49.819Z,1005.06
2017-05-13T13:24:42.328Z,1005.14
2017-05-13T13:25:24.229Z,1005.21
2017-05-13T13:26:07.030Z,1005.18
2017-05-13T13:26:47.699Z,1005.21
2017-05-13T13:27:28.355Z,1005.14
2017-05-13T13:28:09.175Z,1005.08
2017-05-13T13:28:49.817Z,1005.08
2017-05-13T13:29:37.205Z,1005.02
2017-05-13T13:30:17.790Z,1004.99
2017-05-13T13:31:00.592Z,1004.95
2017-05-13T13:31:41.329Z,1004.98
2017-05-13T13:32:22.186Z,1004.95
2017-05-13T13:33:02.963Z,1004.93
2017-05-13T13:33:43.705Z,1004.98
2017-05-13T13:34:24.300Z,1005.01
2017-05-13T13:35:05.009Z,1005.02
2017-05-13T13:35:45.782Z,1005.06
2017-05-13T13:36:26.545Z,1005.06
2017-05-13T13:37:08.383Z,1005.06
2017-05-13T13:37:54.086Z,1005.06
2017-05-13T13:38:35.871Z,1004.97
2017-05-13T13:39:17.624Z,1004.94
2017-05-13T13:39:58.410Z,1005.01
2017-05-13T13:40:39.017Z,1005.02
2017-05-13T13:41:30.868Z,1004.91
2017-05-13T13:42:11.447Z,1004.95
2017-05-13T13:42:52.267Z,1004.92
2017-05-13T13:43:34.210Z,1004.93
2017-05-13T13:44:15.012Z,1004.99
2017-05-13T13:44:55.824Z,1005.04
2017-05-13T13:45:36.559Z,1005.04
2017-05-13T13:46:19.245Z,1005.04
2017-05-13T13:47:00.935Z,1005.04
2017-05-13T13:47:48.208Z,1005.04
2017-05-13T13:48:29.097Z,1005.04
2017-05-13T13:49:09.748Z,1005.04
2017-05-13T13:49:50.491Z,1004.93
2017-05-13T13:50:31.165Z,1004.9
2017-05-13T13:51:11.948Z,1004.92
2017-05-13T13:51:53.798Z,1004.97
2017-05-13T13:52:34.422Z,1005.07
2017-05-13T13:53:15.156Z,1005.06
2017-05-13T13:53:55.734Z,1005.03
2017-05-13T13:54:38.879Z,1005.02
2017-05-13T13:55:19.509Z,1004.95
2017-05-13T13:56:01.269Z,1004.96
2017-05-13T13:56:43.021Z,1004.98
2017-05-13T13:57:23.606Z,1004.88
2017-05-13T13:58:09.128Z,1004.93
2017-05-13T13:58:55.711Z,1004.93
2017-05-13T13:59:37.444Z,1004.96
2017-05-13T14:00:18.076Z,1005.02
2017-05-13T14:01:00.873Z,1005.11
2017-05-13T14:01:47.158Z,1005.17
2017-05-13T14:02:29.968Z,1005.09
2017-05-13T14:03:15.325Z,1005.09
2017-05-13T14:03:57.103Z,1004.99
2017-05-13T14:04:38.004Z,1004.95
2017-05-13T14:05:20.752Z,1004.94
2017-05-13T14:06:06.348Z,1005.07
2017-05-13T14:06:47.104Z,1005.04
2017-05-13T14:07:39.855Z,1005.02
2017-05-13T14:08:33.388Z,1004.96
2017-05-13T14:09:14.137Z,1004.96
2017-05-13T14:10:00.827Z,1004.96
2017-05-13T14:10:43.567Z,1004.96
2017-05-13T14:11:24.391Z,1004.96
2017-05-13T14:12:05.031Z,1004.96
2017-05-13T14:12:45.743Z,1004.96
2017-05-13T14:13:27.493Z,1004.96
2017-05-13T14:14:10.176Z,1004.96
2017-05-13T14:14:50.727Z,1004.96
2017-05-13T14:15:32.497Z,1004.96
2017-05-13T14:16:13.237Z,1004.96
2017-05-13T14:16:54.939Z,1004.96
2017-05-13T14:17:35.519Z,1004.96
2017-05-13T14:22:35.614Z,0
2017-05-13T14:23:16.174Z,0
2017-05-13T14:24:01.627Z,0
2017-05-13T14:24:46.893Z,0
2017-05-13T14:25:27.476Z,0
2017-05-13T14:26:10.246Z,0
2017-05-13T14:27:05.969Z,0
2017-05-13T14:27:48.774Z,0
2017-05-13T14:28:45.404Z,0
2017-05-13T14:29:27.064Z,0
2017-05-13T14:30:19.366Z,0
2017-05-13T14:31:01.073Z,0
2017-05-13T14:31:43.750Z,0
2017-05-13T14:32:24.380Z,0
2017-05-13T14:33:07.070Z,0
2017-05-13T14:33:47.759Z,0
2017-05-13T14:34:29.455Z,0
2017-05-13T14:35:10.042Z,0
2017-05-13T14:35:56.399Z,0
2017-05-13T14:36:37.064Z,0
2017-05-13T14:37:17.729Z,0
2017-05-13T14:37:58.379Z,0
2017-05-13T14:38:39.028Z,0
2017-05-13T14:39:19.708Z,0
2017-05-13T14:40:00.358Z,0
2017-05-13T14:40:40.885Z,0
2017-05-13T14:41:21.542Z,0
2017-05-13T14:42:02.060Z,0
2017-05-13T14:42:42.640Z,0
2017-05-13T14:43:23.173Z,0
2017-05-13T14:44:03.854Z,0
2017-05-13T14:44:44.461Z,0
2017-05-13T14:45:25.079Z,0
2017-05-13T14:46:05.679Z,0
2017-05-13T14:46:46.361Z,0
2017-05-13T14:47:27.004Z,0
2017-05-13T14:48:07.568Z,0
2017-05-13T14:48:48.196Z,0
2017-05-13T14:49:28.697Z,0
2017-05-13T14:50:09.314Z,0
2017-05-13T14:50:49.835Z,0
2017-05-13T14:51:30.410Z,0
2017-05-13T14:52:10.927Z,0
2017-05-13T14:52:51.524Z,0
2017-05-13T14:53:32.147Z,0
2017-05-13T14:54:12.630Z,0
2017-05-13T14:54:53.469Z,0
2017-05-13T14:55:34.039Z,0
2017-05-13T14:56:16.762Z,0
2017-05-13T14:56:57.339Z,0
2017-05-13T14:57:38.919Z,0
2017-05-13T14:58:25.553Z,0
2017-05-13T14:59:06.130Z,0
2017-05-13T14:59:53.690Z,0
2017-05-13T15:00:39.881Z,0
2017-05-13T15:01:20.408Z,0
2017-05-13T15:02:02.098Z,0
2017-05-13T15:02:42.760Z,0
2017-05-13T15:03:23.419Z,0
2017-05-13T15:04:04.178Z,0
2017-05-13T15:04:45.871Z,0
2017-05-13T15:05:27.650Z,0
2017-05-13T15:06:08.199Z,0
2017-05-13T15:06:49.858Z,0
2017-05-13T15:07:30.557Z,0
2017-05-13T15:08:11.199Z,0
2017-05-13T15:08:57.859Z,0
2017-05-13T15:09:39.632Z,0
2017-05-13T15:10:21.321Z,0
2017-05-13T15:11:01.968Z,0
2017-05-13T15:11:42.552Z,0
2017-05-13T15:12:23.179Z,0
2017-05-13T15:13:05.918Z,0
2017-05-13T15:13:46.656Z,0
2017-05-13T15:14:27.279Z,0
2017-05-13T15:15:07.949Z,0
2017-05-13T15:15:48.583Z,0
2017-05-13T15:16:30.282Z,0
2017-05-13T15:17:12.981Z,0
2017-05-13T15:17:53.625Z,0
2017-05-13T15:18:36.337Z,0
2017-05-13T15:19:17.082Z,0
2017-05-13T15:19:58.755Z,0
2017-05-13T15:20:40.409Z,0
2017-05-13T15:21:21.153Z,0
2017-05-13T15:22:01.726Z,0
2017-05-13T15:22:47.410Z,0
2017-05-13T15:23:28.115Z,0
2017-05-13T15:24:08.769Z,0
2017-05-13T15:24:49.351Z,0
2017-05-13T15:25:31.063Z,0
2017-05-13T15:26:11.765Z,0
2017-05-13T15:26:52.429Z,0
2017-05-13T15:27:33.005Z,0
2017-05-13T15:28:13.822Z,0
2017-05-13T15:28:59.391Z,0
2017-05-13T15:29:40.007Z,0